Aplicació Alertes

Dades de l'estació automàtica Monells

?
?
Resum diari 22:30 TU
Dades diàries de l'estació meteorològica
Temperatura mitjana 5.2 °C
Temperatura màxima 13.9 °C 13:42 TU
Temperatura mínima -4.3 °C 7:24 TU
Humitat relativa mitjana 56%
Precipitació acumulada 0.0 mm
Ratxa màxima del vent (2 m) 21.2 km/h - 296º 1:14 TU
Irradiació solar global 8.2 MJ/m2

El tram horari està expressat en Temps Universal (TU). Cal sumar una hora en horari d'hivern i dues en horari d'estiu per passar a l'hora oficial.

Monells

Metadades estació meteorol´gica
Municipi Cruïlles, Monells i Sant Sadurní de l'Heura
Comarca Baix Empordà
Altitud 60 m
Data alta 04.03.1998
Estat actual Operativa
Dades de període
Període
TU
TM
°C
TX
°C
TN
°C
HRM
%
PPT
mm
VVM (2 m)
km/h
DVM (2 m)
graus
VVX (2 m)
km/h
RS
W/m2
00:00 - 00:30 5.9 6.2 5.4 50 0.0 7.2 32 15.1 0
00:30 - 01:00 5.0 5.6 4.2 55 0.0 3.6 58 11.5 0
01:00 - 01:30 5.5 6.2 4.1 57 0.0 7.9 336 21.2 0
01:30 - 02:00 5.8 6.0 5.6 56 0.0 5.8 359 12.6 0
02:00 - 02:30 5.5 5.8 5.0 56 0.0 4.0 341 15.1 0
02:30 - 03:00 5.6 6.2 4.5 53 0.0 5.8 282 21.2 0
03:00 - 03:30 5.0 5.6 4.4 54 0.0 6.8 13 15.1 0
03:30 - 04:00 4.9 5.4 4.6 55 0.0 7.2 29 15.8 0
04:00 - 04:30 4.1 5.0 1.8 56 0.0 4.0 212 10.1 0
04:30 - 05:00 1.0 1.9 -1.0 69 0.0 2.5 243 7.9 0
05:00 - 05:30 -1.2 -0.6 -1.9 79 0.0 3.2 228 8.6 0
05:30 - 06:00 -1.5 -1.1 -2.2 80 0.0 1.8 237 5.8 0
06:00 - 06:30 -1.8 -0.9 -2.6 80 0.0 4.0 258 8.6 0
06:30 - 07:00 -2.8 -1.9 -3.9 83 0.0 1.1 290 5.8 0
07:00 - 07:30 -3.8 -3.3 -4.3 87 0.0 3.2 226 7.6 6
07:30 - 08:00 -2.9 -2.1 -3.7 84 0.0 3.2 238 7.2 59
08:00 - 08:30 -0.6 1.0 -2.0 76 0.0 1.4 234 7.2 131
08:30 - 09:00 2.6 3.8 1.2 64 0.0 1.4 266 5.0 203
09:00 - 09:30 6.2 8.3 4.0 51 0.0 1.1 175 3.6 270
09:30 - 10:00 9.3 10.0 8.3 40 0.0 2.5 167 7.6 348
10:00 - 10:30 10.0 10.5 9.5 34 0.0 4.0 174 9.7 380
10:30 - 11:00 10.8 11.6 10.5 32 0.0 3.6 122 8.6 435
11:00 - 11:30 11.0 11.2 10.8 30 0.0 2.2 167 7.2 247
11:30 - 12:00 11.9 12.8 10.9 28 0.0 4.7 346 17.3 475
12:00 - 12:30 12.6 13.3 11.8 24 0.0 5.0 207 11.2 447
12:30 - 13:00 12.8 13.2 12.4 24 0.0 4.7 224 11.9 391
13:00 - 13:30 12.7 13.0 12.2 25 0.0 5.4 242 16.2 262
13:30 - 14:00 13.1 13.9 12.1 26 0.0 5.4 353 15.1 256
14:00 - 14:30 13.4 13.8 12.7 27 0.0 5.8 12 15.1 288
14:30 - 15:00 13.1 13.6 12.7 32 0.0 10.8 41 20.9 213
15:00 - 15:30 12.4 12.7 12.2 37 0.0 11.2 41 19.8 135
15:30 - 16:00 11.8 12.2 11.3 39 0.0 7.9 29 16.9 64
16:00 - 16:30 10.8 11.3 10.1 42 0.0 9.4 32 19.8 8
16:30 - 17:00 9.8 10.2 9.4 45 0.0 6.1 24 13.7 0
17:00 - 17:30 9.7 9.8 8.4 46 0.0 8.3 36 18.0 0
17:30 - 18:00 5.5 8.0 3.6 57 0.0 3.2 221 6.1 0
18:00 - 18:30 3.9 4.4 3.3 62 0.0 4.3 250 10.1 0
18:30 - 19:00 3.4 3.9 2.0 64 0.0 5.0 239 8.6 0
19:00 - 19:30 1.7 2.5 0.9 70 0.0 4.0 237 8.3 0
19:30 - 20:00 0.8 1.6 0.1 75 0.0 4.0 244 7.6 0
20:00 - 20:30 0.3 0.8 -0.5 77 0.0 3.6 257 6.1 0
20:30 - 21:00 -0.4 0.7 -1.4 81 0.0 4.0 240 7.9 0
21:00 - 21:30 -0.8 -0.1 -1.4 82 0.0 2.9 236 5.8 0
21:30 - 22:00 -0.9 -0.4 -1.3 84 0.0 2.9 247 6.5 0
22:00 - 22:30 -1.0 -0.5 -1.5 85 0.0 1.4 266 7.6 0
22:30 - 23:00 -0.4 0.4 -1.1 84 0.0 5.0 228 9.7 0

Les dades en taronja només han passat un control de qualitat automàtic. Resta pendent la seva validació definitiva.